ADDS METAR Data INFO
IDs: Format: Raw Decoded Include TAF

Data at: 0942 UTC 25 Jun 2018

K04V 250930Z AUTO 31010KT 10SM CLR 08/M04 A3024 RMK AO2
K04V 250912Z AUTO 32011KT 10SM CLR 09/M04 A3024 RMK AO2
K04V 250854Z AUTO 32012KT 10SM CLR 10/M05 A3024 RMK AO2
K04V 250830Z AUTO 32010KT 10SM CLR 10/M04 A3025 RMK AO2
K04V 250812Z AUTO 33010KT 10SM CLR 09/M05 A3025 RMK AO2
K04V 250754Z AUTO 34003KT 10SM CLR 09/M05 A3025 RMK AO2
K04V 250730Z AUTO 35007KT 10SM CLR 10/M06 A3025 RMK AO2
K04V 250712Z AUTO 33009KT 10SM CLR 11/M06 A3025 RMK AO2
K04V 250654Z AUTO 32009KT 10SM CLR 11/M05 A3025 RMK AO2
K04V 250630Z AUTO 33009KT 10SM CLR 13/M05 A3024 RMK AO2
K04V 250612Z AUTO 31009KT 10SM CLR 13/M05 A3023 RMK AO2
K04V 250554Z AUTO 31011KT 10SM CLR 12/M05 A3022 RMK AO2
K04V 250530Z AUTO 32006KT 10SM CLR 10/M07 A3023 RMK AO2
K04V 250512Z AUTO 02006KT 10SM CLR 11/M07 A3023 RMK AO2
K04V 250454Z AUTO 35006KT 10SM CLR 12/M06 A3023 RMK AO2
K04V 250430Z AUTO 33007KT 10SM CLR 13/M06 A3023 RMK AO2
K04V 250412Z AUTO 06004KT 10SM CLR 15/M06 A3024 RMK AO2
K04V 250354Z AUTO 06004KT 10SM CLR 16/M06 A3023 RMK AO2
K04V 250330Z AUTO 36011G21KT 10SM CLR 18/M06 A3021 RMK AO2
K04V 250312Z AUTO 01009KT 10SM CLR 18/M08 A3019 RMK AO2
K04V 250254Z AUTO 34015G24KT 10SM CLR 19/M09 A3018 RMK AO2
K04V 250230Z AUTO 34017G22KT 10SM CLR 20/M10 A3017 RMK AO2
K04V 250212Z AUTO 34020G24KT 10SM CLR 20/M10 A3017 RMK AO2
K04V 250154Z AUTO 34020G27KT 10SM CLR 21/M10 A3016 RMK AO2
K04V 250130Z AUTO 32024G31KT 10SM CLR 22/M10 A3016 RMK AO2
K04V 250112Z AUTO 33018G28KT 10SM CLR 22/M11 A3016 RMK AO2
K04V 250055Z AUTO 33018G25KT 10SM CLR 22/M12 A3016 RMK AO2
K04V 250031Z AUTO 33023G29KT 10SM CLR 23/M12 A3016 RMK AO2 LTG DSNT E
K04V 250013Z AUTO 34023G32KT 10SM CLR 23/M11 A3015 RMK AO2
K04V 242354Z AUTO 33020G27KT 10SM CLR 24/M10 A3014 RMK AO2
K04V 242330Z AUTO 33019G30KT 10SM CLR 24/M08 A3013 RMK AO2
K04V 242312Z AUTO 31019G26KT 10SM CLR 25/M08 A3013 RMK AO2
K04V 242254Z AUTO 32020G33KT 10SM CLR 24/M08 A3013 RMK AO2
K04V 242230Z AUTO 33022G33KT 10SM CLR 25/M08 A3012 RMK AO2 LTG DSNT NE
K04V 242212Z AUTO 33022G32KT 10SM CLR 25/M10 A3012 RMK AO2
K04V 242154Z AUTO 34022G40KT 10SM CLR 25/M11 A3010 RMK AO2
K04V 242130Z AUTO 34025G33KT 10SM CLR 26/M10 A3009 RMK AO2 LTG DSNT NE
K04V 242112Z AUTO 35031G39KT 10SM CLR 26/M08 A3008 RMK AO2 LTG DSNT E
K04V 242054Z AUTO 32030G39KT 10SM CLR 26/M10 A3007 RMK AO2
K04V 242030Z AUTO 32038G47KT 10SM CLR 26/M08 A3006 RMK AO2 LTG DSNT NE
K04V 242012Z AUTO 33021G39KT 10SM CLR 26/M07 A3007 RMK AO2 LTG DSNT N SE AND S
K04V 241954Z AUTO 33029G37KT 10SM CLR 26/M07 A3007 RMK AO2 LTG DSNT NE AND SE
K04V 241930Z AUTO 34021G30KT 10SM CLR 26/M05 A3008 RMK AO2 LTG DSNT N
K04V 241912Z AUTO 35019G29KT 10SM CLR 26/M04 A3008 RMK AO2
K04V 241854Z AUTO 34025G35KT 10SM CLR 26/M03 A3007 RMK AO2 LTG DSNT N
K04V 241830Z AUTO 33019G30KT 10SM CLR 26/M03 A3007 RMK AO2
K04V 241812Z AUTO 34014G28KT 10SM CLR 25/M03 A3008 RMK AO2
K04V 241754Z AUTO 33014G27KT 10SM CLR 24/M03 A3008 RMK AO2
K04V 241730Z AUTO 33017G22KT 10SM CLR 25/M02 A3008 RMK AO2 LTG DSNT N
K04V 241712Z AUTO 31006KT 262V332 10SM CLR 24/M02 A3009 RMK AO2 LTG DSNT N
K04V 241654Z AUTO 19011G17KT 10SM SCT120 23/M02 A3007 RMK AO2 LTG DSNT N
K04V 241630Z AUTO 20012G31KT 10SM SCT120 23/M01 A3007 RMK AO2
K04V 241612Z AUTO 31008KT 10SM SCT120 24/M03 A3007 RMK AO2
K04V 241554Z AUTO 34010G16KT 10SM CLR 23/M03 A3007 RMK AO2
K04V 241530Z AUTO 35003KT 10SM CLR 22/M03 A3009 RMK AO2 LTG DSNT N
K04V 241512Z AUTO 35003KT 10SM CLR 21/M03 A3009 RMK AO2
K04V 241454Z AUTO 32007KT 10SM CLR 20/M03 A3010 RMK AO2
K04V 241430Z AUTO 31007KT 10SM CLR 19/M03 A3011 RMK AO2
K04V 241412Z AUTO 31009KT 10SM CLR 18/M03 A3011 RMK AO2
K04V 241354Z AUTO 31009KT 10SM CLR 17/M04 A3011 RMK AO2
K04V 241330Z AUTO 32011KT 10SM CLR 15/M06 A3011 RMK AO2
K04V 241312Z AUTO 32010KT 10SM CLR 13/M07 A3010 RMK AO2
K04V 241254Z AUTO 31008KT 10SM CLR 12/M07 A3010 RMK AO2
K04V 241230Z AUTO 36010KT 10SM CLR 10/M07 A3010 RMK AO2
K04V 241212Z AUTO 35007KT 10SM CLR 09/M07 A3010 RMK AO2
K04V 241154Z AUTO 33009KT 10SM CLR 09/M08 A3009 RMK AO2
K04V 241130Z AUTO 33010KT 10SM CLR 10/M08 A3008 RMK AO2
K04V 241112Z AUTO 33008KT 10SM CLR 09/M08 A3008 RMK AO2
K04V 241054Z AUTO 33007KT 10SM CLR 11/M08 A3007 RMK AO2
K04V 241030Z AUTO 32008KT 10SM CLR 07/M07 A3007 RMK AO2
K04V 241012Z AUTO 32006KT 10SM CLR 07/M07 A3007 RMK AO2
K04V 240954Z AUTO 28004KT 10SM CLR 08/M08 A3006 RMK AO2
K04V 240930Z AUTO 35008KT 10SM CLR 12/M08 A3005 RMK AO2
K04V 240912Z AUTO 35010KT 10SM CLR 11/M07 A3005 RMK AO2
K04V 240854Z AUTO 34009KT 10SM CLR 11/M07 A3005 RMK AO2
K04V 240830Z AUTO 34009KT 10SM CLR 12/M07 A3005 RMK AO2
K04V 240812Z AUTO 33008KT 10SM CLR 11/M07 A3005 RMK AO2
K04V 240754Z AUTO 32007KT 10SM CLR 11/M07 A3005 RMK AO2
K04V 240730Z AUTO 33008KT 10SM CLR 11/M07 A3005 RMK AO2
K04V 240712Z AUTO 32007KT 10SM CLR 12/M07 A3006 RMK AO2
K04V 240654Z AUTO 34009KT 10SM CLR 12/M07 A3006 RMK AO2 LTG DSNT N
K04V 240630Z AUTO 33008KT 10SM CLR 12/M07 A3006 RMK AO2 LTG DSNT NW
K04V 240612Z AUTO 32006KT 10SM CLR 11/M07 A3006 RMK AO2
K04V 240554Z AUTO 36005KT 10SM CLR 12/M07 A3006 RMK AO2 LTG DSNT NW
K04V 240530Z AUTO 32003KT 10SM CLR 13/M07 A3006 RMK AO2
K04V 240512Z AUTO 30005KT 10SM CLR 15/M07 A3006 RMK AO2
K04V 240454Z AUTO 03011KT 10SM CLR 16/M07 A3007 RMK AO2
K04V 240430Z AUTO 02009KT 10SM CLR 15/M07 A3007 RMK AO2
K04V 240412Z AUTO 25003KT 10SM CLR 17/M07 A3007 RMK AO2
K04V 240354Z AUTO 26003KT 10SM CLR 18/M07 A3007 RMK AO2
K04V 240330Z AUTO 31003KT 10SM CLR 17/M06 A3006 RMK AO2
K04V 240312Z AUTO 30007KT 10SM CLR 18/M06 A3006 RMK AO2
K04V 240252Z AUTO 33006KT 10SM SCT120 19/M06 A3006 RMK AO2
K04V 240234Z AUTO 29004KT 10SM SCT120 20/M05 A3005 RMK AO2
K04V 240212Z AUTO 30005KT 10SM CLR 22/M06 A3005 RMK AO2
K04V 240154Z AUTO 32011G19KT 10SM CLR 24/M07 A3005 RMK AO2
K04V 240130Z AUTO 34011G21KT 10SM CLR 24/M08 A3004 RMK AO2
K04V 240112Z AUTO 33018G26KT 10SM CLR 26/M08 A3003 RMK AO2
K04V 240055Z AUTO 33018G29KT 10SM CLR 26/M08 A3003 RMK AO2 LTG DSNT N
K04V 240031Z AUTO 34022G27KT 10SM CLR 27/M08 A3003 RMK AO2
K04V 240013Z AUTO 32019G27KT 10SM CLR 27/M07 A3003 RMK AO2
K04V 232354Z AUTO 32021G29KT 10SM CLR 27/M08 A3003 RMK AO2
K04V 232330Z AUTO 32016G28KT 10SM CLR 28/M07 A3003 RMK AO2
K04V 232312Z AUTO 32021G35KT 10SM CLR 28/M08 A3004 RMK AO2
K04V 232254Z AUTO 33018G34KT 10SM CLR 28/M07 A3004 RMK AO2
K04V 232230Z AUTO 33019G25KT 10SM CLR 28/M07 A3005 RMK AO2
K04V 232212Z AUTO 33020G25KT 10SM CLR 28/M06 A3005 RMK AO2
K04V 232154Z AUTO 35012G27KT 10SM CLR 27/M06 A3005 RMK AO2